sensor_id;sensor_type;location;lat;lon;timestamp;temperature;humidity
1800;DHT22;919;48.274;12.292;2022-12-24T00:00:11;11.00;99.90
1800;DHT22;919;48.274;12.292;2022-12-24T00:02:38;11.10;99.90
1800;DHT22;919;48.274;12.292;2022-12-24T00:05:05;11.00;99.90
1800;DHT22;919;48.274;12.292;2022-12-24T00:07:32;11.10;99.90
1800;DHT22;919;48.274;12.292;2022-12-24T00:10:00;11.00;99.90
1800;DHT22;919;48.274;12.292;2022-12-24T00:12:27;11.00;99.90
1800;DHT22;919;48.274;12.292;2022-12-24T00:14:53;11.00;99.90
1800;DHT22;919;48.274;12.292;2022-12-24T00:17:20;11.00;99.90
1800;DHT22;919;48.274;12.292;2022-12-24T00:19:47;10.90;99.90
1800;DHT22;919;48.274;12.292;2022-12-24T00:22:14;10.90;99.90
1800;DHT22;919;48.274;12.292;2022-12-24T00:24:41;10.80;99.90
1800;DHT22;919;48.274;12.292;2022-12-24T00:27:09;10.80;99.90
1800;DHT22;919;48.274;12.292;2022-12-24T00:29:35;10.80;99.90
1800;DHT22;919;48.274;12.292;2022-12-24T00:32:02;10.70;99.90
1800;DHT22;919;48.274;12.292;2022-12-24T00:34:32;10.70;99.90
1800;DHT22;919;48.274;12.292;2022-12-24T00:36:59;10.80;99.90
1800;DHT22;919;48.274;12.292;2022-12-24T00:39:26;10.90;99.90
1800;DHT22;919;48.274;12.292;2022-12-24T00:41:52;11.00;99.90
1800;DHT22;919;48.274;12.292;2022-12-24T00:44:21;10.90;99.90
1800;DHT22;919;48.274;12.292;2022-12-24T00:46:47;10.90;99.90
1800;DHT22;919;48.274;12.292;2022-12-24T00:49:15;10.80;99.90
1800;DHT22;919;48.274;12.292;2022-12-24T00:51:42;10.60;99.90
1800;DHT22;919;48.274;12.292;2022-12-24T00:54:09;10.60;99.90
1800;DHT22;919;48.274;12.292;2022-12-24T00:56:35;10.50;99.90
1800;DHT22;919;48.274;12.292;2022-12-24T00:59:02;10.50;99.90
1800;DHT22;919;48.274;12.292;2022-12-24T01:01:30;10.40;99.90
1800;DHT22;919;48.274;12.292;2022-12-24T01:03:57;10.40;99.90
1800;DHT22;919;48.274;12.292;2022-12-24T01:06:38;10.40;99.90
1800;DHT22;919;48.274;12.292;2022-12-24T01:09:04;10.40;99.90
1800;DHT22;919;48.274;12.292;2022-12-24T01:11:31;10.40;99.90
1800;DHT22;919;48.274;12.292;2022-12-24T01:13:58;10.30;99.90
1800;DHT22;919;48.274;12.292;2022-12-24T01:16:25;10.30;99.90
1800;DHT22;919;48.274;12.292;2022-12-24T01:18:53;10.20;99.90
1800;DHT22;919;48.274;12.292;2022-12-24T01:21:20;10.20;99.90
1800;DHT22;919;48.274;12.292;2022-12-24T01:23:46;10.20;99.90
1800;DHT22;919;48.274;12.292;2022-12-24T01:26:13;10.20;99.90
1800;DHT22;919;48.274;12.292;2022-12-24T01:28:40;10.20;99.90
1800;DHT22;919;48.274;12.292;2022-12-24T01:31:11;10.10;99.90
1800;DHT22;919;48.274;12.292;2022-12-24T01:33:38;10.20;99.90
1800;DHT22;919;48.274;12.292;2022-12-24T01:36:07;10.20;99.90
1800;DHT22;919;48.274;12.292;2022-12-24T01:38:34;10.10;99.90
1800;DHT22;919;48.274;12.292;2022-12-24T01:41:01;10.00;99.90
1800;DHT22;919;48.274;12.292;2022-12-24T01:43:44;10.10;99.90
1800;DHT22;919;48.274;12.292;2022-12-24T01:46:16;10.00;99.90
1800;DHT22;919;48.274;12.292;2022-12-24T01:48:45;10.10;99.90
1800;DHT22;919;48.274;12.292;2022-12-24T01:51:27;10.10;99.90
1800;DHT22;919;48.274;12.292;2022-12-24T01:53:58;10.10;99.90
1800;DHT22;919;48.274;12.292;2022-12-24T01:56:28;10.10;99.90
1800;DHT22;919;48.274;12.292;2022-12-24T01:58:57;10.10;99.90
1800;DHT22;919;48.274;12.292;2022-12-24T02:01:24;10.00;99.90
1800;DHT22;919;48.274;12.292;2022-12-24T02:03:51;10.10;99.90
1800;DHT22;919;48.274;12.292;2022-12-24T02:06:20;10.00;99.90
1800;DHT22;919;48.274;12.292;2022-12-24T02:08:47;10.00;99.90
1800;DHT22;919;48.274;12.292;2022-12-24T02:11:16;10.00;99.90
1800;DHT22;919;48.274;12.292;2022-12-24T02:13:51;10.10;99.90
1800;DHT22;919;48.274;12.292;2022-12-24T02:16:28;10.10;99.90
1800;DHT22;919;48.274;12.292;2022-12-24T02:18:59;10.00;99.90
1800;DHT22;919;48.274;12.292;2022-12-24T02:21:46;10.00;99.90
1800;DHT22;919;48.274;12.292;2022-12-24T02:24:50;9.90;99.90
1800;DHT22;919;48.274;12.292;2022-12-24T02:27:28;9.70;99.90
1800;DHT22;919;48.274;12.292;2022-12-24T02:30:05;9.70;99.90
1800;DHT22;919;48.274;12.292;2022-12-24T02:32:43;9.60;99.90
1800;DHT22;919;48.274;12.292;2022-12-24T02:35:16;9.50;99.90
1800;DHT22;919;48.274;12.292;2022-12-24T02:37:48;9.50;99.90
1800;DHT22;919;48.274;12.292;2022-12-24T02:40:20;9.50;99.90
1800;DHT22;919;48.274;12.292;2022-12-24T02:42:50;9.50;99.90
1800;DHT22;919;48.274;12.292;2022-12-24T02:45:22;9.50;99.90
1800;DHT22;919;48.274;12.292;2022-12-24T02:47:52;9.50;99.90
1800;DHT22;919;48.274;12.292;2022-12-24T02:50:21;9.50;99.90
1800;DHT22;919;48.274;12.292;2022-12-24T02:52:48;9.50;99.90
1800;DHT22;919;48.274;12.292;2022-12-24T02:55:18;9.50;99.90
1800;DHT22;919;48.274;12.292;2022-12-24T02:58:10;9.50;99.90
1800;DHT22;919;48.274;12.292;2022-12-24T03:00:50;9.60;99.90
1800;DHT22;919;48.274;12.292;2022-12-24T03:03:34;9.60;99.90
1800;DHT22;919;48.274;12.292;2022-12-24T03:06:08;9.60;99.90
1800;DHT22;919;48.274;12.292;2022-12-24T03:08:39;9.60;99.90
1800;DHT22;919;48.274;12.292;2022-12-24T03:11:09;9.70;99.90
1800;DHT22;919;48.274;12.292;2022-12-24T03:13:37;9.80;99.90
1800;DHT22;919;48.274;12.292;2022-12-24T03:16:06;9.90;99.90
1800;DHT22;919;48.274;12.292;2022-12-24T03:18:37;9.90;99.90
1800;DHT22;919;48.274;12.292;2022-12-24T03:21:09;9.90;99.90
1800;DHT22;919;48.274;12.292;2022-12-24T03:23:36;10.00;99.90
1800;DHT22;919;48.274;12.292;2022-12-24T03:26:08;10.10;99.90
1800;DHT22;919;48.274;12.292;2022-12-24T03:28:37;10.20;99.90
1800;DHT22;919;48.274;12.292;2022-12-24T03:31:07;10.20;99.90
1800;DHT22;919;48.274;12.292;2022-12-24T03:33:34;10.20;99.90
1800;DHT22;919;48.274;12.292;2022-12-24T03:36:01;10.10;99.90
1800;DHT22;919;48.274;12.292;2022-12-24T03:38:27;10.10;99.90
1800;DHT22;919;48.274;12.292;2022-12-24T03:40:54;10.20;99.90
1800;DHT22;919;48.274;12.292;2022-12-24T03:43:21;10.20;99.90
1800;DHT22;919;48.274;12.292;2022-12-24T03:45:48;10.10;99.90
1800;DHT22;919;48.274;12.292;2022-12-24T03:48:16;10.30;99.90
1800;DHT22;919;48.274;12.292;2022-12-24T03:50:43;10.20;99.90
1800;DHT22;919;48.274;12.292;2022-12-24T03:53:09;10.20;99.90
1800;DHT22;919;48.274;12.292;2022-12-24T03:55:37;10.20;99.90
1800;DHT22;919;48.274;12.292;2022-12-24T03:58:03;10.20;99.90
1800;DHT22;919;48.274;12.292;2022-12-24T04:00:30;10.20;99.90
1800;DHT22;919;48.274;12.292;2022-12-24T04:02:57;10.20;99.90
1800;DHT22;919;48.274;12.292;2022-12-24T04:05:25;10.20;99.90
1800;DHT22;919;48.274;12.292;2022-12-24T04:07:52;10.10;99.90
1800;DHT22;919;48.274;12.292;2022-12-24T04:10:18;10.10;99.90
1800;DHT22;919;48.274;12.292;2022-12-24T04:12:45;10.10;99.90
1800;DHT22;919;48.274;12.292;2022-12-24T04:15:12;10.10;99.90
1800;DHT22;919;48.274;12.292;2022-12-24T04:17:39;10.20;99.90
1800;DHT22;919;48.274;12.292;2022-12-24T04:20:07;10.20;99.90
1800;DHT22;919;48.274;12.292;2022-12-24T04:22:35;10.20;99.90
1800;DHT22;919;48.274;12.292;2022-12-24T04:25:02;10.20;99.90
1800;DHT22;919;48.274;12.292;2022-12-24T04:27:29;10.10;99.90
1800;DHT22;919;48.274;12.292;2022-12-24T04:29:56;10.20;99.90
1800;DHT22;919;48.274;12.292;2022-12-24T04:32:24;10.20;99.90
1800;DHT22;919;48.274;12.292;2022-12-24T04:34:51;10.20;99.90
1800;DHT22;919;48.274;12.292;2022-12-24T04:37:18;10.20;99.90
1800;DHT22;919;48.274;12.292;2022-12-24T04:39:46;10.20;99.90
1800;DHT22;919;48.274;12.292;2022-12-24T04:42:12;10.20;99.90
1800;DHT22;919;48.274;12.292;2022-12-24T04:44:39;10.20;99.90
1800;DHT22;919;48.274;12.292;2022-12-24T04:47:06;10.20;99.90
1800;DHT22;919;48.274;12.292;2022-12-24T04:49:32;10.20;99.90
1800;DHT22;919;48.274;12.292;2022-12-24T04:51:59;10.20;99.90
1800;DHT22;919;48.274;12.292;2022-12-24T04:54:26;10.20;99.90
1800;DHT22;919;48.274;12.292;2022-12-24T04:56:54;10.20;99.90
1800;DHT22;919;48.274;12.292;2022-12-24T04:59:21;10.20;99.90
1800;DHT22;919;48.274;12.292;2022-12-24T05:01:48;10.30;99.90
1800;DHT22;919;48.274;12.292;2022-12-24T05:04:14;10.20;99.90
1800;DHT22;919;48.274;12.292;2022-12-24T05:06:41;10.20;99.90
1800;DHT22;919;48.274;12.292;2022-12-24T05:09:08;10.20;99.90
1800;DHT22;919;48.274;12.292;2022-12-24T05:11:34;10.20;99.90
1800;DHT22;919;48.274;12.292;2022-12-24T05:14:03;10.20;99.90
1800;DHT22;919;48.274;12.292;2022-12-24T05:16:29;10.20;99.90
1800;DHT22;919;48.274;12.292;2022-12-24T05:18:56;10.20;99.90
1800;DHT22;919;48.274;12.292;2022-12-24T05:21:23;10.20;99.90
1800;DHT22;919;48.274;12.292;2022-12-24T05:23:52;10.30;99.90
1800;DHT22;919;48.274;12.292;2022-12-24T05:26:39;10.30;99.90
1800;DHT22;919;48.274;12.292;2022-12-24T05:29:08;10.20;99.90
1800;DHT22;919;48.274;12.292;2022-12-24T05:31:37;10.20;99.90
1800;DHT22;919;48.274;12.292;2022-12-24T05:34:05;10.20;99.90
1800;DHT22;919;48.274;12.292;2022-12-24T05:36:32;10.20;99.90
1800;DHT22;919;48.274;12.292;2022-12-24T05:38:58;10.10;99.90
1800;DHT22;919;48.274;12.292;2022-12-24T05:41:25;10.00;99.90
1800;DHT22;919;48.274;12.292;2022-12-24T05:43:53;9.90;99.90
1800;DHT22;919;48.274;12.292;2022-12-24T05:46:22;9.80;99.90
1800;DHT22;919;48.274;12.292;2022-12-24T05:48:49;9.70;99.90
1800;DHT22;919;48.274;12.292;2022-12-24T05:51:18;9.60;99.90
1800;DHT22;919;48.274;12.292;2022-12-24T05:53:47;9.60;99.90
1800;DHT22;919;48.274;12.292;2022-12-24T05:56:16;9.50;99.90
1800;DHT22;919;48.274;12.292;2022-12-24T05:58:44;9.50;99.90
1800;DHT22;919;48.274;12.292;2022-12-24T06:01:11;9.40;99.90
1800;DHT22;919;48.274;12.292;2022-12-24T06:03:39;9.30;99.90
1800;DHT22;919;48.274;12.292;2022-12-24T06:06:07;9.30;99.90
1800;DHT22;919;48.274;12.292;2022-12-24T06:08:35;9.20;99.90
1800;DHT22;919;48.274;12.292;2022-12-24T06:11:04;9.20;99.90
1800;DHT22;919;48.274;12.292;2022-12-24T06:13:31;9.30;99.90
1800;DHT22;919;48.274;12.292;2022-12-24T06:16:00;9.30;99.90
1800;DHT22;919;48.274;12.292;2022-12-24T06:18:28;9.20;99.90
1800;DHT22;919;48.274;12.292;2022-12-24T06:20:56;9.20;99.90
1800;DHT22;919;48.274;12.292;2022-12-24T06:23:24;9.20;99.90
1800;DHT22;919;48.274;12.292;2022-12-24T06:25:51;9.20;99.90
1800;DHT22;919;48.274;12.292;2022-12-24T06:28:18;9.20;99.90
1800;DHT22;919;48.274;12.292;2022-12-24T06:30:45;9.20;99.90
1800;DHT22;919;48.274;12.292;2022-12-24T06:33:12;9.10;99.90
1800;DHT22;919;48.274;12.292;2022-12-24T06:35:39;9.00;99.90
1800;DHT22;919;48.274;12.292;2022-12-24T06:38:07;8.90;99.90
1800;DHT22;919;48.274;12.292;2022-12-24T06:40:36;8.80;99.90
1800;DHT22;919;48.274;12.292;2022-12-24T06:43:03;8.60;99.90
1800;DHT22;919;48.274;12.292;2022-12-24T06:45:30;8.60;99.90
1800;DHT22;919;48.274;12.292;2022-12-24T06:47:57;8.50;99.90
1800;DHT22;919;48.274;12.292;2022-12-24T06:50:24;8.50;99.90
1800;DHT22;919;48.274;12.292;2022-12-24T06:52:51;8.50;99.90
1800;DHT22;919;48.274;12.292;2022-12-24T06:55:19;8.50;99.90
1800;DHT22;919;48.274;12.292;2022-12-24T06:57:46;8.50;99.90
1800;DHT22;919;48.274;12.292;2022-12-24T07:00:13;8.50;99.90
1800;DHT22;919;48.274;12.292;2022-12-24T07:02:41;8.40;99.90
1800;DHT22;919;48.274;12.292;2022-12-24T07:05:08;8.40;99.90
1800;DHT22;919;48.274;12.292;2022-12-24T07:07:35;8.40;99.90
1800;DHT22;919;48.274;12.292;2022-12-24T07:10:03;8.40;99.90
1800;DHT22;919;48.274;12.292;2022-12-24T07:12:31;8.40;99.90
1800;DHT22;919;48.274;12.292;2022-12-24T07:14:58;8.40;99.90
1800;DHT22;919;48.274;12.292;2022-12-24T07:17:25;8.40;99.90
1800;DHT22;919;48.274;12.292;2022-12-24T07:19:52;8.30;99.90
1800;DHT22;919;48.274;12.292;2022-12-24T07:22:19;8.30;99.90
1800;DHT22;919;48.274;12.292;2022-12-24T07:24:45;8.30;99.90
1800;DHT22;919;48.274;12.292;2022-12-24T07:27:12;8.30;99.90
1800;DHT22;919;48.274;12.292;2022-12-24T07:29:40;8.20;99.90
1800;DHT22;919;48.274;12.292;2022-12-24T07:32:08;8.20;99.90
1800;DHT22;919;48.274;12.292;2022-12-24T07:34:35;8.20;99.90
1800;DHT22;919;48.274;12.292;2022-12-24T07:37:01;8.20;99.90
1800;DHT22;919;48.274;12.292;2022-12-24T07:39:28;8.30;99.90
1800;DHT22;919;48.274;12.292;2022-12-24T07:41:55;8.30;99.90
1800;DHT22;919;48.274;12.292;2022-12-24T07:44:22;8.30;99.90
1800;DHT22;919;48.274;12.292;2022-12-24T07:46:50;8.30;99.90
1800;DHT22;919;48.274;12.292;2022-12-24T07:49:17;8.40;99.90
1800;DHT22;919;48.274;12.292;2022-12-24T07:51:44;8.50;99.90
1800;DHT22;919;48.274;12.292;2022-12-24T07:54:11;8.50;99.90
1800;DHT22;919;48.274;12.292;2022-12-24T07:56:38;8.50;99.90
1800;DHT22;919;48.274;12.292;2022-12-24T07:59:05;8.50;99.90
1800;DHT22;919;48.274;12.292;2022-12-24T08:01:31;8.40;99.90
1800;DHT22;919;48.274;12.292;2022-12-24T08:03:59;8.40;99.90
1800;DHT22;919;48.274;12.292;2022-12-24T08:06:26;8.40;99.90
1800;DHT22;919;48.274;12.292;2022-12-24T08:08:53;8.40;99.90
1800;DHT22;919;48.274;12.292;2022-12-24T08:11:19;8.40;99.90
1800;DHT22;919;48.274;12.292;2022-12-24T08:13:46;8.30;99.90
1800;DHT22;919;48.274;12.292;2022-12-24T08:16:13;8.30;99.90
1800;DHT22;919;48.274;12.292;2022-12-24T08:18:40;8.30;99.90
1800;DHT22;919;48.274;12.292;2022-12-24T08:21:09;8.30;99.90
1800;DHT22;919;48.274;12.292;2022-12-24T08:23:36;8.30;99.90
1800;DHT22;919;48.274;12.292;2022-12-24T08:26:05;8.40;99.90
1800;DHT22;919;48.274;12.292;2022-12-24T08:28:32;8.40;99.90
1800;DHT22;919;48.274;12.292;2022-12-24T08:30:59;8.50;99.90
1800;DHT22;919;48.274;12.292;2022-12-24T08:33:26;8.60;99.90
1800;DHT22;919;48.274;12.292;2022-12-24T08:35:55;8.80;99.90
1800;DHT22;919;48.274;12.292;2022-12-24T08:38:23;8.90;99.90
1800;DHT22;919;48.274;12.292;2022-12-24T08:40:52;8.90;99.90
1800;DHT22;919;48.274;12.292;2022-12-24T08:43:19;9.00;99.90
1800;DHT22;919;48.274;12.292;2022-12-24T08:45:46;9.00;99.90
1800;DHT22;919;48.274;12.292;2022-12-24T08:48:13;9.10;99.90
1800;DHT22;919;48.274;12.292;2022-12-24T08:50:41;9.10;99.90
1800;DHT22;919;48.274;12.292;2022-12-24T08:53:08;9.20;99.90
1800;DHT22;919;48.274;12.292;2022-12-24T08:55:37;9.30;99.90
1800;DHT22;919;48.274;12.292;2022-12-24T08:58:04;9.30;99.90
1800;DHT22;919;48.274;12.292;2022-12-24T09:00:31;9.30;99.90
1800;DHT22;919;48.274;12.292;2022-12-24T09:02:58;9.40;99.90
1800;DHT22;919;48.274;12.292;2022-12-24T09:05:24;9.50;99.90
1800;DHT22;919;48.274;12.292;2022-12-24T09:07:51;9.50;99.90
1800;DHT22;919;48.274;12.292;2022-12-24T09:10:18;9.50;99.90
1800;DHT22;919;48.274;12.292;2022-12-24T09:12:46;9.60;99.90
1800;DHT22;919;48.274;12.292;2022-12-24T09:15:13;9.60;99.90
1800;DHT22;919;48.274;12.292;2022-12-24T09:17:41;9.60;99.90
1800;DHT22;919;48.274;12.292;2022-12-24T09:20:09;9.60;99.90
1800;DHT22;919;48.274;12.292;2022-12-24T09:22:37;9.70;99.90
1800;DHT22;919;48.274;12.292;2022-12-24T09:25:05;9.70;99.90
1800;DHT22;919;48.274;12.292;2022-12-24T09:27:33;9.80;99.90
1800;DHT22;919;48.274;12.292;2022-12-24T09:30:05;9.70;99.90
1800;DHT22;919;48.274;12.292;2022-12-24T09:32:32;9.70;99.90
1800;DHT22;919;48.274;12.292;2022-12-24T09:34:59;9.70;99.90
1800;DHT22;919;48.274;12.292;2022-12-24T09:37:26;9.70;99.90
1800;DHT22;919;48.274;12.292;2022-12-24T09:39:52;9.70;99.90
1800;DHT22;919;48.274;12.292;2022-12-24T09:42:27;9.70;99.90
1800;DHT22;919;48.274;12.292;2022-12-24T09:45:05;9.80;99.90
1800;DHT22;919;48.274;12.292;2022-12-24T09:47:36;9.80;99.90
1800;DHT22;919;48.274;12.292;2022-12-24T09:50:21;9.80;99.90
1800;DHT22;919;48.274;12.292;2022-12-24T09:52:51;9.80;99.90
1800;DHT22;919;48.274;12.292;2022-12-24T09:55:24;9.80;99.90
1800;DHT22;919;48.274;12.292;2022-12-24T09:57:53;9.80;99.90
1800;DHT22;919;48.274;12.292;2022-12-24T10:00:24;9.90;99.90
1800;DHT22;919;48.274;12.292;2022-12-24T10:02:51;9.90;99.90
1800;DHT22;919;48.274;12.292;2022-12-24T10:05:25;9.90;99.90
1800;DHT22;919;48.274;12.292;2022-12-24T10:08:04;10.00;99.90
1800;DHT22;919;48.274;12.292;2022-12-24T10:10:41;10.00;99.90
1800;DHT22;919;48.274;12.292;2022-12-24T10:13:26;10.00;99.90
1800;DHT22;919;48.274;12.292;2022-12-24T10:16:05;10.10;99.90
1800;DHT22;919;48.274;12.292;2022-12-24T10:18:53;10.00;99.90
1800;DHT22;919;48.274;12.292;2022-12-24T10:21:27;10.10;99.90
1800;DHT22;919;48.274;12.292;2022-12-24T10:24:04;10.20;99.90
1800;DHT22;919;48.274;12.292;2022-12-24T10:26:36;10.20;99.90
1800;DHT22;919;48.274;12.292;2022-12-24T10:29:11;10.20;99.90
1800;DHT22;919;48.274;12.292;2022-12-24T10:31:44;10.20;99.90
1800;DHT22;919;48.274;12.292;2022-12-24T10:34:18;10.20;99.90
1800;DHT22;919;48.274;12.292;2022-12-24T10:36:45;10.30;99.90
1800;DHT22;919;48.274;12.292;2022-12-24T10:39:16;10.40;99.90
1800;DHT22;919;48.274;12.292;2022-12-24T10:41:45;10.50;99.90
1800;DHT22;919;48.274;12.292;2022-12-24T10:44:15;10.80;99.90
1800;DHT22;919;48.274;12.292;2022-12-24T10:46:45;11.00;99.90
1800;DHT22;919;48.274;12.292;2022-12-24T10:49:14;11.20;99.90
1800;DHT22;919;48.274;12.292;2022-12-24T10:51:45;11.10;99.90
1800;DHT22;919;48.274;12.292;2022-12-24T10:54:15;11.20;99.90
1800;DHT22;919;48.274;12.292;2022-12-24T10:56:45;11.20;99.90
1800;DHT22;919;48.274;12.292;2022-12-24T10:59:25;11.10;99.90
1800;DHT22;919;48.274;12.292;2022-12-24T11:01:57;11.20;99.90
1800;DHT22;919;48.274;12.292;2022-12-24T11:04:25;11.30;99.90
1800;DHT22;919;48.274;12.292;2022-12-24T11:06:57;11.40;99.90
1800;DHT22;919;48.274;12.292;2022-12-24T11:09:26;11.40;99.90
1800;DHT22;919;48.274;12.292;2022-12-24T11:11:54;11.50;99.90
1800;DHT22;919;48.274;12.292;2022-12-24T11:14:21;11.40;99.90
1800;DHT22;919;48.274;12.292;2022-12-24T11:16:51;11.60;99.90
1800;DHT22;919;48.274;12.292;2022-12-24T11:19:29;11.50;99.90
1800;DHT22;919;48.274;12.292;2022-12-24T11:22:02;11.40;99.90
1800;DHT22;919;48.274;12.292;2022-12-24T11:24:31;11.40;99.90
1800;DHT22;919;48.274;12.292;2022-12-24T11:27:29;11.50;99.90
1800;DHT22;919;48.274;12.292;2022-12-24T11:30:20;11.50;99.90
1800;DHT22;919;48.274;12.292;2022-12-24T11:32:48;11.60;99.90
1800;DHT22;919;48.274;12.292;2022-12-24T11:35:18;11.50;99.90
1800;DHT22;919;48.274;12.292;2022-12-24T11:37:46;11.60;99.90
1800;DHT22;919;48.274;12.292;2022-12-24T11:40:21;11.50;99.90
1800;DHT22;919;48.274;12.292;2022-12-24T11:42:48;11.50;99.90
1800;DHT22;919;48.274;12.292;2022-12-24T11:45:21;11.70;99.90
1800;DHT22;919;48.274;12.292;2022-12-24T11:47:49;11.70;99.90
1800;DHT22;919;48.274;12.292;2022-12-24T11:50:23;11.70;99.90
1800;DHT22;919;48.274;12.292;2022-12-24T11:52:56;11.70;99.90
1800;DHT22;919;48.274;12.292;2022-12-24T11:55:32;11.80;99.90
1800;DHT22;919;48.274;12.292;2022-12-24T11:58:04;11.80;99.90
1800;DHT22;919;48.274;12.292;2022-12-24T12:00:31;11.80;99.90
1800;DHT22;919;48.274;12.292;2022-12-24T12:03:00;11.90;99.90
1800;DHT22;919;48.274;12.292;2022-12-24T12:05:32;12.00;99.90
1800;DHT22;919;48.274;12.292;2022-12-24T12:08:05;12.00;99.90
1800;DHT22;919;48.274;12.292;2022-12-24T12:10:36;12.10;99.90
1800;DHT22;919;48.274;12.292;2022-12-24T12:13:10;12.10;99.90
1800;DHT22;919;48.274;12.292;2022-12-24T12:15:40;12.10;99.90
1800;DHT22;919;48.274;12.292;2022-12-24T12:18:10;12.00;99.90
1800;DHT22;919;48.274;12.292;2022-12-24T12:20:42;12.00;99.90
1800;DHT22;919;48.274;12.292;2022-12-24T12:23:14;11.90;99.90
1800;DHT22;919;48.274;12.292;2022-12-24T12:25:45;11.80;99.90
1800;DHT22;919;48.274;12.292;2022-12-24T12:28:19;11.80;99.90
1800;DHT22;919;48.274;12.292;2022-12-24T12:30:53;11.80;99.90
1800;DHT22;919;48.274;12.292;2022-12-24T12:33:25;11.80;99.90
1800;DHT22;919;48.274;12.292;2022-12-24T12:35:56;12.00;99.90
1800;DHT22;919;48.274;12.292;2022-12-24T12:38:27;11.80;99.90
1800;DHT22;919;48.274;12.292;2022-12-24T12:41:20;11.80;99.90
1800;DHT22;919;48.274;12.292;2022-12-24T12:44:17;11.80;99.90
1800;DHT22;919;48.274;12.292;2022-12-24T12:46:59;11.70;99.90
1800;DHT22;919;48.274;12.292;2022-12-24T12:49:36;11.60;99.90
1800;DHT22;919;48.274;12.292;2022-12-24T12:52:15;11.60;99.90
1800;DHT22;919;48.274;12.292;2022-12-24T12:54:53;11.70;99.90
1800;DHT22;919;48.274;12.292;2022-12-24T12:57:27;11.80;99.90
1800;DHT22;919;48.274;12.292;2022-12-24T13:00:01;11.90;99.90
1800;DHT22;919;48.274;12.292;2022-12-24T13:02:51;11.90;99.90
1800;DHT22;919;48.274;12.292;2022-12-24T13:08:29;11.60;99.90
1800;DHT22;919;48.274;12.292;2022-12-24T13:11:21;11.50;99.90
1800;DHT22;919;48.274;12.292;2022-12-24T13:14:18;11.40;99.90
1800;DHT22;919;48.274;12.292;2022-12-24T13:17:31;11.30;99.90
1800;DHT22;919;48.274;12.292;2022-12-24T13:20:16;11.10;99.90
1800;DHT22;919;48.274;12.292;2022-12-24T13:22:48;11.00;99.90
1800;DHT22;919;48.274;12.292;2022-12-24T13:25:23;10.90;99.90
1800;DHT22;919;48.274;12.292;2022-12-24T13:27:51;10.80;99.90
1800;DHT22;919;48.274;12.292;2022-12-24T13:30:35;10.70;99.90
1800;DHT22;919;48.274;12.292;2022-12-24T13:33:05;10.60;99.90
1800;DHT22;919;48.274;12.292;2022-12-24T13:38:57;10.80;99.90
1800;DHT22;919;48.274;12.292;2022-12-24T13:41:49;10.90;99.90
1800;DHT22;919;48.274;12.292;2022-12-24T13:44:21;11.00;99.90
1800;DHT22;919;48.274;12.292;2022-12-24T13:46:53;10.90;99.90
1800;DHT22;919;48.274;12.292;2022-12-24T13:49:29;10.80;99.90
1800;DHT22;919;48.274;12.292;2022-12-24T13:52:07;10.80;99.90
1800;DHT22;919;48.274;12.292;2022-12-24T13:54:41;10.80;99.90
1800;DHT22;919;48.274;12.292;2022-12-24T13:57:26;10.90;99.90
1800;DHT22;919;48.274;12.292;2022-12-24T13:59:57;11.00;99.90
1800;DHT22;919;48.274;12.292;2022-12-24T14:02:25;11.00;99.90
1800;DHT22;919;48.274;12.292;2022-12-24T14:04:58;11.00;99.90
1800;DHT22;919;48.274;12.292;2022-12-24T14:07:26;10.90;99.90
1800;DHT22;919;48.274;12.292;2022-12-24T14:09:53;10.80;99.90
1800;DHT22;919;48.274;12.292;2022-12-24T14:12:48;10.80;99.90
1800;DHT22;919;48.274;12.292;2022-12-24T14:15:43;10.70;99.90
1800;DHT22;919;48.274;12.292;2022-12-24T14:18:11;10.60;99.90
1800;DHT22;919;48.274;12.292;2022-12-24T14:20:42;10.40;99.90
1800;DHT22;919;48.274;12.292;2022-12-24T14:23:19;10.30;99.90
1800;DHT22;919;48.274;12.292;2022-12-24T14:25:49;10.30;99.90
1800;DHT22;919;48.274;12.292;2022-12-24T14:28:23;10.20;99.90
1800;DHT22;919;48.274;12.292;2022-12-24T14:30:59;10.20;99.90
1800;DHT22;919;48.274;12.292;2022-12-24T14:33:29;10.20;99.90
1800;DHT22;919;48.274;12.292;2022-12-24T14:35:57;10.20;99.90
1800;DHT22;919;48.274;12.292;2022-12-24T14:38:25;10.10;99.90
1800;DHT22;919;48.274;12.292;2022-12-24T14:40:59;10.10;99.90
1800;DHT22;919;48.274;12.292;2022-12-24T14:43:38;10.10;99.90
1800;DHT22;919;48.274;12.292;2022-12-24T14:46:13;9.90;99.90
1800;DHT22;919;48.274;12.292;2022-12-24T14:48:47;9.90;99.90
1800;DHT22;919;48.274;12.292;2022-12-24T14:51:21;9.90;99.90
1800;DHT22;919;48.274;12.292;2022-12-24T14:54:06;9.80;99.90
1800;DHT22;919;48.274;12.292;2022-12-24T14:56:36;9.60;99.90
1800;DHT22;919;48.274;12.292;2022-12-24T14:59:15;9.50;99.90
1800;DHT22;919;48.274;12.292;2022-12-24T15:01:42;9.60;99.90
1800;DHT22;919;48.274;12.292;2022-12-24T15:04:16;9.50;99.90
1800;DHT22;919;48.274;12.292;2022-12-24T15:06:46;9.60;99.90
1800;DHT22;919;48.274;12.292;2022-12-24T15:09:18;9.60;99.90
1800;DHT22;919;48.274;12.292;2022-12-24T15:11:47;9.50;99.90
1800;DHT22;919;48.274;12.292;2022-12-24T15:14:17;9.60;99.90
1800;DHT22;919;48.274;12.292;2022-12-24T15:16:51;9.60;99.90
1800;DHT22;919;48.274;12.292;2022-12-24T15:19:22;9.70;99.90
1800;DHT22;919;48.274;12.292;2022-12-24T15:21:49;9.70;99.90
1800;DHT22;919;48.274;12.292;2022-12-24T15:24:25;9.70;99.90
1800;DHT22;919;48.274;12.292;2022-12-24T15:26:52;9.70;99.90
1800;DHT22;919;48.274;12.292;2022-12-24T15:29:23;9.70;99.90
1800;DHT22;919;48.274;12.292;2022-12-24T15:31:55;9.70;99.90
1800;DHT22;919;48.274;12.292;2022-12-24T15:34:28;9.60;99.90
1800;DHT22;919;48.274;12.292;2022-12-24T15:37:03;9.60;99.90
1800;DHT22;919;48.274;12.292;2022-12-24T15:39:31;9.70;99.90
1800;DHT22;919;48.274;12.292;2022-12-24T15:41:59;9.70;99.90
1800;DHT22;919;48.274;12.292;2022-12-24T15:44:52;9.60;99.90
1800;DHT22;919;48.274;12.292;2022-12-24T15:47:26;9.50;99.90
1800;DHT22;919;48.274;12.292;2022-12-24T15:49:54;9.50;99.90
1800;DHT22;919;48.274;12.292;2022-12-24T15:52:22;9.50;99.90
1800;DHT22;919;48.274;12.292;2022-12-24T15:54:50;9.40;99.90
1800;DHT22;919;48.274;12.292;2022-12-24T15:57:22;9.30;99.90
1800;DHT22;919;48.274;12.292;2022-12-24T15:59:52;9.40;99.90
1800;DHT22;919;48.274;12.292;2022-12-24T16:02:31;9.30;99.90
1800;DHT22;919;48.274;12.292;2022-12-24T16:05:16;9.20;99.90
1800;DHT22;919;48.274;12.292;2022-12-24T16:07:59;9.30;99.90
1800;DHT22;919;48.274;12.292;2022-12-24T16:10:44;9.40;99.90
1800;DHT22;919;48.274;12.292;2022-12-24T16:13:15;9.40;99.90
1800;DHT22;919;48.274;12.292;2022-12-24T16:15:48;9.40;99.90
1800;DHT22;919;48.274;12.292;2022-12-24T16:18:18;9.40;99.90
1800;DHT22;919;48.274;12.292;2022-12-24T16:20:48;9.30;99.90
1800;DHT22;919;48.274;12.292;2022-12-24T16:23:17;9.30;99.90
1800;DHT22;919;48.274;12.292;2022-12-24T16:25:44;9.30;99.90
1800;DHT22;919;48.274;12.292;2022-12-24T16:28:11;9.20;99.90
1800;DHT22;919;48.274;12.292;2022-12-24T16:30:38;9.20;99.90
1800;DHT22;919;48.274;12.292;2022-12-24T16:33:12;9.10;99.90
1800;DHT22;919;48.274;12.292;2022-12-24T16:35:39;9.10;99.90
1800;DHT22;919;48.274;12.292;2022-12-24T16:38:07;9.00;99.90